Time;durP1;ratioP1;P1;durP2;ratioP2;P2;SDS_P1;SDS_P2;PMS_P1;PMS_P2;Temp;Humidity;BMP_temperature;BMP_pressure;BME280_temperature;BME280_humidity;BME280_pressure;Samples;Min_cycle;Max_cycle;Signal;HPM_P1;HPM_P2
2021/09/01 00:01:04;;;;;;;5.00;3.88;;;;;;;17.86;61.75;96469.13;5054790;28;20031;-56
2021/09/01 00:03:30;;;;;;;9.27;4.57;;;;;;;17.91;63.81;96456.41;5056842;28;20021;-54
2021/09/01 00:05:55;;;;;;;5.85;4.22;;;;;;;17.94;60.96;96444.75;5057006;28;20087;-52
2021/09/01 00:08:21;;;;;;;5.75;4.55;;;;;;;17.99;61.24;96452.38;5056980;28;20028;-55
2021/09/01 00:10:46;;;;;;;6.38;4.15;;;;;;;18.05;62.03;96457.25;5056821;28;20031;-56
2021/09/01 00:13:12;;;;;;;6.20;5.40;;;;;;;18.11;62.03;96462.13;5056797;28;20028;-55
2021/09/01 00:15:37;;;;;;;5.45;4.63;;;;;;;18.16;61.85;96461.81;5038892;28;20029;-53
2021/09/01 00:18:03;;;;;;;8.10;5.90;;;;;;;18.14;63.18;96453.13;5056707;28;20028;-57
2021/09/01 00:20:29;;;;;;;7.50;6.60;;;;;;;18.05;63.18;96460.75;5056779;28;20035;-55
2021/09/01 00:22:55;;;;;;;7.88;5.68;;;;;;;18.04;63.49;96451.13;5056723;28;20429;-55
2021/09/01 00:25:21;;;;;;;7.53;5.25;;;;;;;18.05;63.54;96452.81;5056629;28;20039;-54
2021/09/01 00:27:47;;;;;;;6.55;5.85;;;;;;;18.03;63.82;96446.75;5056673;28;20479;-54
2021/09/01 00:30:12;;;;;;;6.40;5.28;;;;;;;18.09;63.14;96450.78;5056449;28;20021;-51
2021/09/01 00:32:38;;;;;;;6.68;5.65;;;;;;;18.05;62.91;96455.44;5056432;28;20037;-56
2021/09/01 00:35:04;;;;;;;8.05;5.68;;;;;;;18.08;63.05;96459.66;5056395;28;20036;-55
2021/09/01 00:37:29;;;;;;;7.95;5.70;;;;;;;17.99;63.10;96457.66;5056570;28;20352;-56
2021/09/01 00:39:55;;;;;;;5.72;5.07;;;;;;;18.01;63.27;96459.28;5056372;28;20387;-55
2021/09/01 00:42:21;;;;;;;6.85;5.75;;;;;;;18.00;63.59;96467.31;5055901;28;20051;-54
2021/09/01 00:44:47;;;;;;;6.63;4.85;;;;;;;17.98;64.14;96458.63;5056157;28;20025;-54
2021/09/01 00:47:16;;;;;;;8.02;5.45;;;;;;;17.99;64.35;96462.94;5056153;28;20025;-57
2021/09/01 00:49:42;;;;;;;8.25;4.60;;;;;;;17.95;64.91;96459.69;5056111;28;20466;-58
2021/09/01 00:52:07;;;;;;;7.38;5.40;;;;;;;17.86;65.15;96457.66;5056175;28;20021;-54
2021/09/01 00:54:33;;;;;;;10.18;5.50;;;;;;;17.72;65.93;96456.81;5055990;28;20029;-59
2021/09/01 00:57:04;;;;;;;6.85;5.85;;;;;;;17.67;66.41;96451.00;5055965;28;20018;-53
2021/09/01 00:59:37;;;;;;;7.30;6.05;;;;;;;17.67;66.73;96443.09;5056074;28;20139;-56
2021/09/01 01:02:03;;;;;;;7.85;5.97;;;;;;;17.59;67.08;96440.09;5055968;28;20549;-51
2021/09/01 01:04:33;;;;;;;7.90;5.57;;;;;;;17.57;67.45;96442.00;5055831;28;20047;-55
2021/09/01 01:07:04;;;;;;;11.55;5.80;;;;;;;17.57;67.63;96442.00;5055905;28;20044;-59
2021/09/01 01:09:36;;;;;;;6.82;6.07;;;;;;;17.51;67.97;96441.47;5055841;28;20028;-55
2021/09/01 01:12:13;;;;;;;6.32;5.05;;;;;;;17.52;66.96;96447.63;5054841;28;20104;-53
2021/09/01 01:14:41;;;;;;;7.70;5.85;;;;;;;17.50;67.11;96449.50;5055723;28;20037;-57
2021/09/01 01:17:09;;;;;;;7.43;6.00;;;;;;;17.52;66.68;96445.81;5055582;28;20017;-56
2021/09/01 01:19:39;;;;;;;9.80;4.95;;;;;;;17.45;66.36;96447.16;5055606;28;20033;-58
2021/09/01 01:22:05;;;;;;;5.93;5.00;;;;;;;17.37;65.42;96445.03;5055375;28;20504;-55
2021/09/01 01:25:04;;;;;;;4.93;4.38;;;;;;;17.32;65.62;96444.50;5055439;28;20029;-56
2021/09/01 01:27:32;;;;;;;7.18;4.90;;;;;;;17.22;65.68;96438.16;5001630;28;20033;-54
2021/09/01 01:30:17;;;;;;;6.63;4.72;;;;;;;17.19;65.77;96441.84;5055261;28;20021;-58
2021/09/01 01:32:45;;;;;;;5.15;4.28;;;;;;;17.21;66.03;96442.56;5055357;28;20029;-54
2021/09/01 01:35:21;;;;;;;7.18;4.57;;;;;;;17.22;66.38;96441.63;5055273;28;20021;-55
2021/09/01 01:37:47;;;;;;;7.22;5.20;;;;;;;17.28;65.97;96437.75;5055322;28;20067;-51
2021/09/01 01:40:13;;;;;;;5.00;4.45;;;;;;;17.35;65.67;96435.53;5055307;28;20056;-58
2021/09/01 01:42:42;;;;;;;6.18;4.63;;;;;;;17.44;65.55;96440.19;5054841;28;20045;-54
2021/09/01 01:45:09;;;;;;;6.18;5.00;;;;;;;17.44;66.07;96442.84;5055105;28;20104;-56
2021/09/01 01:47:35;;;;;;;5.57;4.57;;;;;;;17.51;65.40;96432.69;5055242;28;20029;-54
2021/09/01 01:50:01;;;;;;;5.22;4.72;;;;;;;17.57;65.20;96442.84;5055038;28;20151;-54
2021/09/01 01:52:26;;;;;;;6.50;5.00;;;;;;;17.56;65.35;96438.53;5054969;28;20371;-55
2021/09/01 01:54:52;;;;;;;6.65;4.35;;;;;;;17.56;64.90;96443.81;5054847;28;20021;-54
2021/09/01 01:57:19;;;;;;;6.93;4.40;;;;;;;17.59;64.46;96448.88;5054827;28;20037;-57
2021/09/01 01:59:44;;;;;;;6.85;4.80;;;;;;;17.50;64.69;96436.28;5054794;28;20379;-57
2021/09/01 02:02:10;;;;;;;8.05;3.78;;;;;;;17.49;64.17;96437.25;5054704;28;20029;-56
2021/09/01 02:04:36;;;;;;;6.88;4.18;;;;;;;17.44;64.33;96432.25;5054913;28;20029;-57
2021/09/01 02:07:02;;;;;;;4.32;3.70;;;;;;;17.45;63.73;96436.59;5054628;28;20538;-59
2021/09/01 02:09:27;;;;;;;5.68;4.25;;;;;;;17.45;64.39;96441.06;5054620;28;20020;-54
2021/09/01 02:11:53;;;;;;;7.80;4.28;;;;;;;17.40;64.54;96438.72;5054538;28;20025;-57
2021/09/01 02:14:18;;;;;;;4.20;3.47;;;;;;;17.37;64.51;96436.28;5054727;28;20029;-54
2021/09/01 02:16:44;;;;;;;6.15;4.40;;;;;;;17.30;64.86;96441.13;5054627;28;20078;-54
2021/09/01 02:19:10;;;;;;;5.32;3.63;;;;;;;17.20;64.71;96447.97;5054482;28;20355;-57
2021/09/01 02:21:37;;;;;;;5.45;4.55;;;;;;;17.14;64.81;96443.94;5054532;28;20032;-54
2021/09/01 02:24:03;;;;;;;4.82;4.18;;;;;;;16.99;64.95;96441.34;5054089;28;20483;-54
2021/09/01 02:26:29;;;;;;;5.63;4.25;;;;;;;16.95;65.28;96447.78;5054328;28;20124;-57
2021/09/01 02:28:55;;;;;;;8.55;4.60;;;;;;;16.85;65.51;96451.94;5054217;28;20486;-55
2021/09/01 02:31:20;;;;;;;6.47;3.35;;;;;;;16.78;65.63;96444.44;5054173;28;20036;-55
2021/09/01 02:33:46;;;;;;;4.65;3.90;;;;;;;16.76;65.79;96443.69;5054127;28;20039;-54
2021/09/01 02:36:11;;;;;;;11.65;4.05;;;;;;;16.69;66.17;96439.75;5054103;28;20021;-56
2021/09/01 02:38:41;;;;;;;6.80;4.05;;;;;;;16.70;65.93;96440.59;5054326;28;20029;-58
2021/09/01 02:41:07;;;;;;;5.82;4.25;;;;;;;16.66;66.06;96446.06;5053818;28;20065;-54
2021/09/01 02:43:32;;;;;;;6.65;4.20;;;;;;;16.65;65.57;96448.81;5053992;28;20065;-55
2021/09/01 02:45:58;;;;;;;4.53;3.67;;;;;;;16.58;66.37;96452.78;5053959;28;20044;-58
2021/09/01 02:48:23;;;;;;;6.57;4.53;;;;;;;16.54;66.24;96452.13;5053926;28;20096;-57
2021/09/01 02:50:49;;;;;;;5.93;3.97;;;;;;;16.50;66.50;96450.63;5053936;28;20387;-56
2021/09/01 02:53:15;;;;;;;4.82;3.92;;;;;;;16.47;66.67;96458.75;5053770;28;20037;-55
2021/09/01 02:55:41;;;;;;;6.57;4.05;;;;;;;16.41;66.82;96457.34;5053849;28;20021;-56
2021/09/01 02:58:06;;;;;;;5.72;4.53;;;;;;;16.27;66.69;96452.94;5053730;28;20024;-56
2021/09/01 03:00:32;;;;;;;3.97;3.58;;;;;;;16.22;66.85;96457.66;5053617;28;20383;-56
2021/09/01 03:02:57;;;;;;;5.70;4.68;;;;;;;16.14;67.63;96456.31;5053497;28;20032;-57
2021/09/01 03:05:23;;;;;;;5.28;3.85;;;;;;;16.12;68.01;96460.84;5053561;28;20148;-57
2021/09/01 03:07:48;;;;;;;5.15;4.65;;;;;;;16.07;68.16;96460.28;5053494;28;20391;-55
2021/09/01 03:10:14;;;;;;;5.45;3.95;;;;;;;15.92;67.87;96462.91;5053433;28;20028;-57
2021/09/01 03:12:40;;;;;;;6.15;4.32;;;;;;;15.90;68.44;96451.56;5053408;28;20025;-55
2021/09/01 03:15:05;;;;;;;10.52;5.05;;;;;;;15.96;68.68;96458.31;5053429;28;20032;-53
2021/09/01 03:17:31;;;;;;;9.95;4.85;;;;;;;15.96;68.09;96460.97;5053342;28;20017;-54
2021/09/01 03:19:56;;;;;;;9.05;4.50;;;;;;;16.02;68.51;96467.66;5053322;28;20027;-58
2021/09/01 03:22:22;;;;;;;9.13;4.45;;;;;;;16.01;68.86;96469.44;5053122;28;20020;-57
2021/09/01 03:24:48;;;;;;;9.20;4.55;;;;;;;16.09;68.89;96473.38;5053317;28;20036;-57
2021/09/01 03:27:13;;;;;;;10.25;4.68;;;;;;;16.12;68.59;96476.69;5053321;28;20446;-58
2021/09/01 03:29:39;;;;;;;5.20;4.40;;;;;;;16.13;68.96;96478.38;5053289;28;20029;-56
2021/09/01 03:32:04;;;;;;;8.70;5.30;;;;;;;16.13;68.67;96481.00;5053109;28;20032;-54
2021/09/01 03:34:30;;;;;;;7.95;4.38;;;;;;;16.05;68.55;96478.00;5053286;28;20068;-54
2021/09/01 03:36:56;;;;;;;8.23;4.15;;;;;;;16.10;69.27;96475.09;5052664;28;20025;-57
2021/09/01 03:39:21;;;;;;;5.95;4.28;;;;;;;16.13;69.57;96480.16;5053124;28;20053;-54
2021/09/01 03:41:47;;;;;;;15.15;4.47;;;;;;;16.14;69.63;96487.16;5052814;28;20049;-53
2021/09/01 03:44:12;;;;;;;11.30;4.57;;;;;;;16.13;68.41;96496.84;5052874;28;20040;-56
2021/09/01 03:46:38;;;;;;;5.72;4.63;;;;;;;16.14;67.70;96500.34;5053054;28;20079;-57
2021/09/01 03:49:03;;;;;;;6.47;4.47;;;;;;;16.08;68.24;96496.28;5052975;28;20387;-54
2021/09/01 03:51:29;;;;;;;7.75;5.13;;;;;;;16.05;68.44;96493.84;5053025;28;20017;-55
2021/09/01 03:53:54;;;;;;;9.38;4.78;;;;;;;16.11;69.49;96500.53;5052986;28;20025;-56
2021/09/01 03:56:20;;;;;;;15.15;5.20;;;;;;;16.13;69.63;96502.13;5052924;28;20028;-57
2021/09/01 03:58:45;;;;;;;10.10;4.88;;;;;;;16.17;69.62;96498.34;5053023;28;20029;-58
2021/09/01 04:01:11;;;;;;;7.72;4.10;;;;;;;16.20;69.47;96505.25;5052891;28;20044;-56
2021/09/01 04:03:36;;;;;;;10.05;5.05;;;;;;;16.23;69.31;96506.84;5052830;28;20032;-57
2021/09/01 04:06:03;;;;;;;7.22;4.82;;;;;;;16.24;68.87;96511.16;5052869;28;20035;-53
2021/09/01 04:08:29;;;;;;;12.60;6.32;;;;;;;16.27;69.05;96511.84;5052762;28;20031;-57
2021/09/01 04:10:54;;;;;;;8.23;4.78;;;;;;;16.30;68.93;96513.44;5052748;28;20021;-57
2021/09/01 04:13:20;;;;;;;8.93;4.80;;;;;;;16.37;68.54;96509.47;5052820;28;20064;-57
2021/09/01 04:15:46;;;;;;;7.28;4.32;;;;;;;16.42;67.32;96512.69;5052736;28;20048;-56
2021/09/01 04:18:11;;;;;;;10.20;4.63;;;;;;;16.44;67.19;96517.88;5052710;28;20704;-56
2021/09/01 04:20:37;;;;;;;5.72;4.65;;;;;;;16.50;67.70;96520.09;5052599;28;20053;-57
2021/09/01 04:23:02;;;;;;;6.65;4.95;;;;;;;16.58;68.28;96519.63;5052531;28;20033;-54
2021/09/01 04:25:28;;;;;;;9.25;5.00;;;;;;;16.62;68.48;96518.47;5052779;28;20479;-54
2021/09/01 04:27:54;;;;;;;8.93;4.70;;;;;;;16.67;68.54;96516.41;5052582;28;20112;-54
2021/09/01 04:30:19;;;;;;;8.18;4.30;;;;;;;16.75;67.94;96526.50;5052624;28;20025;-58
2021/09/01 04:32:45;;;;;;;14.25;4.38;;;;;;;16.84;67.79;96522.44;5052563;28;20541;-54
2021/09/01 04:35:11;;;;;;;10.75;4.15;;;;;;;16.96;67.53;96525.22;5052679;28;20024;-53
2021/09/01 04:37:36;;;;;;;9.27;4.20;;;;;;;17.01;67.54;96525.78;5052549;28;20029;-56
2021/09/01 04:40:02;;;;;;;11.70;4.30;;;;;;;17.10;67.24;96532.28;5052428;28;20493;-60
2021/09/01 04:42:27;;;;;;;5.90;4.07;;;;;;;17.15;67.14;96535.47;5052237;28;20106;-58
2021/09/01 04:44:53;;;;;;;9.15;4.13;;;;;;;17.16;66.91;96537.19;5052633;28;20025;-54
2021/09/01 04:47:18;;;;;;;10.20;4.35;;;;;;;17.20;67.05;96538.69;5054561;28;20706;-57
2021/09/01 04:49:44;;;;;;;10.60;5.28;;;;;;;17.27;67.39;96531.19;5056230;28;20032;-53
2021/09/01 04:52:09;;;;;;;7.60;4.72;;;;;;;17.53;66.38;96536.56;5056169;28;20104;-54
2021/09/01 04:54:35;;;;;;;5.80;3.58;;;;;;;17.94;65.20;96529.41;5056107;28;20024;-56
2021/09/01 04:57:01;;;;;;;5.85;4.20;;;;;;;18.49;64.29;96533.69;5055937;28;20029;-56
2021/09/01 04:59:26;;;;;;;9.38;3.72;;;;;;;18.80;62.62;96532.34;5055938;28;20040;-59
2021/09/01 05:01:52;;;;;;;5.15;3.63;;;;;;;19.19;61.12;96544.66;5056037;28;20044;-58
2021/09/01 05:04:18;;;;;;;4.05;3.30;;;;;;;19.41;60.34;96537.75;5055814;28;20029;-57
2021/09/01 05:06:43;;;;;;;11.15;3.83;;;;;;;19.40;59.81;96536.94;5055855;28;20021;-57
2021/09/01 05:09:09;;;;;;;5.50;3.45;;;;;;;19.32;59.60;96529.53;5055778;28;20035;-58
2021/09/01 05:11:34;;;;;;;13.15;3.72;;;;;;;19.48;60.24;96528.41;5037924;28;20032;-58
2021/09/01 05:14:00;;;;;;;4.00;3.33;;;;;;;19.84;59.44;96536.38;5055741;28;20064;-54
2021/09/01 05:16:26;;;;;;;7.93;3.40;;;;;;;20.01;59.91;96532.44;5055698;28;20087;-55
2021/09/01 05:18:51;;;;;;;6.93;3.92;;;;;;;20.04;60.00;96536.66;5055764;28;20096;-57
2021/09/01 05:21:18;;;;;;;14.60;3.80;;;;;;;20.04;60.06;96528.69;5055738;28;20382;-58
2021/09/01 05:23:49;;;;;;;12.82;3.65;;;;;;;20.05;60.12;96527.75;5055482;28;20032;-54
2021/09/01 05:26:16;;;;;;;;;;;;;;;20.07;59.59;96524.00;5055977;28;20052;-55
2021/09/01 05:28:43;;;;;;;22.67;4.35;;;;;;;20.03;59.74;96521.72;5055606;28;19913;-54
2021/09/01 05:31:09;;;;;;;9.00;3.85;;;;;;;20.09;60.11;96523.91;5055424;28;20055;-59
2021/09/01 05:33:38;;;;;;;17.40;4.95;;;;;;;20.22;60.31;96521.13;5055333;28;20061;-57
2021/09/01 05:36:05;;;;;;;15.95;3.60;;;;;;;20.55;60.12;96510.63;5055222;28;20021;-55
2021/09/01 05:38:35;;;;;;;7.70;2.80;;;;;;;21.03;59.32;96516.63;5055370;28;20032;-57
2021/09/01 05:41:02;;;;;;;11.90;3.35;;;;;;;21.61;56.67;96515.44;5055037;28;20087;-57
2021/09/01 05:43:27;;;;;;;8.98;4.28;;;;;;;22.46;56.20;96515.41;5055156;28;20032;-58
2021/09/01 05:45:54;;;;;;;9.25;3.20;;;;;;;23.38;51.57;96511.91;5055157;28;20013;-58
2021/09/01 05:48:21;;;;;;;5.88;3.55;;;;;;;24.01;51.93;96508.91;5055049;28;20379;-55
2021/09/01 05:50:55;;;;;;;12.23;3.70;;;;;;;24.51;51.46;96507.81;5055033;28;20029;-58
2021/09/01 05:53:23;;;;;;;3.92;2.20;;;;;;;24.98;46.86;96498.00;5055133;28;21750;-55
2021/09/01 05:55:51;;;;;;;4.65;2.25;;;;;;;25.33;42.54;96498.19;5054849;28;20032;-56
2021/09/01 05:58:18;;;;;;;2.90;2.00;;;;;;;25.91;44.03;96493.34;5054377;28;20037;-56
2021/09/01 06:00:49;;;;;;;2.55;2.25;;;;;;;26.30;41.24;96492.13;5054867;28;20050;-55
2021/09/01 06:03:22;;;;;;;2.38;1.92;;;;;;;26.94;41.06;96490.03;5054817;28;20068;-56
2021/09/01 06:05:55;;;;;;;3.53;2.28;;;;;;;27.35;36.88;96494.66;5054835;28;20107;-57
2021/09/01 06:08:24;;;;;;;2.10;1.80;;;;;;;27.55;32.35;96487.16;5054697;28;20028;-58
2021/09/01 06:10:56;;;;;;;3.13;2.25;;;;;;;27.94;33.25;96493.72;5054577;28;20017;-56
2021/09/01 06:13:22;;;;;;;2.25;1.98;;;;;;;28.15;33.23;96486.97;5054782;28;20371;-57
2021/09/01 06:15:47;;;;;;;2.75;1.90;;;;;;;28.24;31.12;96485.09;5054563;28;20021;-57
2021/09/01 06:18:13;;;;;;;2.25;1.98;;;;;;;28.30;32.68;96478.22;5054480;28;20493;-57
2021/09/01 06:20:39;;;;;;;2.58;2.30;;;;;;;28.55;34.26;96478.13;5054512;28;20024;-56
2021/09/01 06:23:06;;;;;;;4.03;2.00;;;;;;;28.81;31.33;96480.56;5036522;28;20033;-57
2021/09/01 06:25:32;;;;;;;4.55;2.10;;;;;;;29.09;31.04;96484.63;5054479;28;20021;-57
2021/09/01 06:27:59;;;;;;;2.92;2.45;;;;;;;29.39;30.88;96490.16;5054383;28;20463;-58
2021/09/01 06:30:25;;;;;;;7.22;2.72;;;;;;;29.65;28.91;96486.31;5054246;28;20486;-58
2021/09/01 06:32:51;;;;;;;2.78;2.33;;;;;;;29.85;30.28;96489.31;5054246;28;20183;-60
2021/09/01 06:35:17;;;;;;;2.67;1.98;;;;;;;29.69;28.81;96500.22;5054147;28;20399;-59
2021/09/01 06:37:45;;;;;;;3.08;2.25;;;;;;;29.59;29.35;96501.31;5054110;28;20020;-59
2021/09/01 06:40:12;;;;;;;3.00;2.25;;;;;;;29.54;29.22;96509.06;5054062;28;20029;-58
2021/09/01 06:42:38;;;;;;;2.60;2.15;;;;;;;29.75;29.52;96505.75;5053701;28;20049;-55
2021/09/01 06:45:05;;;;;;;3.83;2.17;;;;;;;30.04;29.03;96499.75;5053978;28;20032;-59
2021/09/01 06:47:42;;;;;;;5.05;2.13;;;;;;;30.15;30.03;96502.00;5053914;28;20364;-57
2021/09/01 06:50:09;;;;;;;4.30;2.17;;;;;;;30.35;28.92;96510.44;5053870;28;20029;-58
2021/09/01 06:52:35;;;;;;;3.63;2.58;;;;;;;30.46;29.88;96509.13;5036047;28;20124;-57
2021/09/01 06:55:01;;;;;;;3.50;2.05;;;;;;;30.43;27.89;96509.50;5053688;28;20515;-55
2021/09/01 06:57:26;;;;;;;2.83;2.40;;;;;;;30.00;28.68;96510.91;5053646;28;20029;-58
2021/09/01 06:59:52;;;;;;;2.33;2.13;;;;;;;29.46;29.71;96509.97;5053646;28;20025;-56
2021/09/01 07:02:18;;;;;;;6.72;2.83;;;;;;;29.23;31.10;96512.66;5053614;28;20044;-58
2021/09/01 07:04:43;;;;;;;2.40;2.20;;;;;;;29.43;29.81;96512.19;5053589;28;20471;-59
2021/09/01 07:07:09;;;;;;;4.18;2.55;;;;;;;29.74;29.50;96508.63;5053563;28;20438;-57
2021/09/01 07:09:34;;;;;;;2.88;2.40;;;;;;;29.91;29.20;96511.19;5053264;28;20550;-58
2021/09/01 07:12:00;;;;;;;3.08;2.30;;;;;;;30.06;29.26;96505.78;5053103;28;20433;-58
2021/09/01 07:14:26;;;;;;;5.03;2.60;;;;;;;29.95;29.62;96510.59;5053528;28;20017;-57
2021/09/01 07:16:51;;;;;;;5.13;2.65;;;;;;;30.06;29.86;96512.03;5053383;28;20036;-57
2021/09/01 07:19:17;;;;;;;2.67;2.47;;;;;;;30.30;28.58;96514.69;5053489;28;20029;-59
2021/09/01 07:21:43;;;;;;;5.55;2.78;;;;;;;30.41;29.51;96508.84;5052829;28;20025;-57
2021/09/01 07:24:09;;;;;;;4.70;3.35;;;;;;;30.14;29.95;96503.88;5053229;28;20508;-59
2021/09/01 07:26:35;;;;;;;5.07;2.67;;;;;;;30.43;28.86;96509.50;5053287;28;20033;-57
2021/09/01 07:29:01;;;;;;;3.80;2.88;;;;;;;30.48;28.64;96515.19;5053268;28;20033;-57
2021/09/01 07:31:30;;;;;;;3.70;2.60;;;;;;;30.74;28.87;96510.34;5053261;28;20029;-56
2021/09/01 07:33:55;;;;;;;3.80;2.97;;;;;;;30.97;28.45;96514.81;5053156;28;20040;-59
2021/09/01 07:36:21;;;;;;;2.45;2.20;;;;;;;30.99;27.96;96523.53;5053064;28;20017;-59
2021/09/01 07:38:47;;;;;;;3.03;2.10;;;;;;;31.15;28.52;96525.16;5053103;28;20387;-58
2021/09/01 07:41:12;;;;;;;2.58;1.92;;;;;;;31.28;27.01;96519.91;5052845;28;20122;-56
2021/09/01 07:43:38;;;;;;;2.17;1.80;;;;;;;31.33;26.21;96521.25;5053027;28;20041;-58
2021/09/01 07:46:04;;;;;;;3.55;1.95;;;;;;;31.09;26.98;96512.47;5053079;28;20021;-58
2021/09/01 07:48:30;;;;;;;2.47;1.98;;;;;;;30.97;28.16;96509.41;5052899;28;20025;-58
2021/09/01 07:50:57;;;;;;;2.33;2.05;;;;;;;30.87;26.89;96507.00;5052939;28;20513;-59
2021/09/01 07:53:22;;;;;;;3.85;2.53;;;;;;;30.50;28.68;96506.91;5052773;28;20471;-56
2021/09/01 07:55:48;;;;;;;4.78;2.83;;;;;;;30.32;28.69;96508.09;5052978;28;20033;-58
2021/09/01 07:58:14;;;;;;;5.25;3.10;;;;;;;30.30;30.70;96507.44;5052740;28;20045;-55
2021/09/01 08:00:40;;;;;;;4.50;2.63;;;;;;;30.44;28.51;96503.09;5052836;28;20061;-59
2021/09/01 08:03:07;;;;;;;8.18;3.08;;;;;;;30.68;29.34;96503.81;5052762;28;20444;-58
2021/09/01 08:05:32;;;;;;;6.25;3.30;;;;;;;30.66;28.48;96503.16;5052791;28;20404;-56
2021/09/01 08:07:58;;;;;;;5.03;3.08;;;;;;;30.84;29.60;96494.72;5052702;28;20025;-57
2021/09/01 08:10:24;;;;;;;4.50;3.05;;;;;;;30.95;29.01;96495.25;5052729;28;20029;-57
2021/09/01 08:12:49;;;;;;;10.23;4.60;;;;;;;30.69;28.98;96480.38;5052739;28;20060;-58
2021/09/01 08:15:15;;;;;;;7.35;3.25;;;;;;;30.61;28.87;96486.72;5052850;28;20025;-58
2021/09/01 08:17:41;;;;;;;3.00;2.72;;;;;;;30.40;30.09;96485.63;5052717;28;20032;-58
2021/09/01 08:20:07;;;;;;;4.05;3.22;;;;;;;30.17;29.77;96480.28;5052781;28;20139;-56
2021/09/01 08:22:34;;;;;;;7.88;3.30;;;;;;;29.98;30.06;96477.91;5055062;28;20033;-55
2021/09/01 08:24:59;;;;;;;11.60;4.70;;;;;;;29.47;30.87;96481.19;5056605;28;20056;-57
2021/09/01 08:27:26;;;;;;;3.88;3.22;;;;;;;28.94;31.89;96479.16;5056548;28;20427;-58
2021/09/01 08:29:52;;;;;;;6.13;3.50;;;;;;;28.86;32.79;96469.22;5056562;28;20033;-57
2021/09/01 08:32:18;;;;;;;3.90;3.50;;;;;;;28.81;33.28;96472.47;5056429;28;20035;-56
2021/09/01 08:34:45;;;;;;;10.13;3.55;;;;;;;28.88;32.38;96464.53;5056555;28;20107;-57
2021/09/01 08:37:12;;;;;;;4.88;3.47;;;;;;;28.80;32.51;96456.50;5056316;28;20020;-59
2021/09/01 08:39:37;;;;;;;3.40;3.05;;;;;;;28.76;32.60;96466.78;5056321;28;20033;-57
2021/09/01 08:42:04;;;;;;;3.60;3.25;;;;;;;28.84;32.98;96463.22;5056029;28;20051;-56
2021/09/01 08:44:30;;;;;;;6.13;3.22;;;;;;;29.14;32.39;96468.78;5056243;28;20025;-57
2021/09/01 08:46:58;;;;;;;3.40;2.60;;;;;;;29.33;31.41;96470.19;5038399;28;20383;-56
2021/09/01 08:49:26;;;;;;;3.33;3.00;;;;;;;29.64;31.20;96463.06;5056085;28;20379;-58
2021/09/01 08:51:52;;;;;;;3.40;3.00;;;;;;;29.86;31.49;96458.63;5056058;28;20459;-56
2021/09/01 08:54:18;;;;;;;5.72;2.88;;;;;;;29.97;31.25;96462.75;5056262;28;20039;-58
2021/09/01 08:56:44;;;;;;;3.95;3.20;;;;;;;30.08;31.32;96453.38;5056120;28;20033;-55
2021/09/01 08:59:10;;;;;;;4.63;3.25;;;;;;;30.17;31.61;96456.00;5056007;28;20083;-57
2021/09/01 09:01:44;;;;;;;4.90;3.30;;;;;;;30.16;31.68;96454.31;5056015;28;20431;-58
2021/09/01 09:04:22;;;;;;;6.60;3.58;;;;;;;30.13;30.14;96450.13;5038078;28;20825;-57
2021/09/01 09:06:54;;;;;;;3.78;2.63;;;;;;;29.68;30.89;96450.91;5055966;28;20029;-58
2021/09/01 09:09:24;;;;;;;3.97;3.50;;;;;;;29.03;33.57;96450.34;5055881;28;20021;-55
2021/09/01 09:11:51;;;;;;;6.22;3.40;;;;;;;29.06;32.28;96447.28;5055795;28;20025;-54
2021/09/01 09:14:28;;;;;;;3.63;3.10;;;;;;;29.27;33.63;96438.56;5055801;28;20051;-59
2021/09/01 09:17:13;;;;;;;3.88;3.03;;;;;;;29.01;32.57;96437.91;5055647;28;20094;-58
2021/09/01 09:19:46;;;;;;;7.55;3.13;;;;;;;29.10;33.92;96429.75;5055557;28;20040;-58
2021/09/01 09:22:14;;;;;;;3.72;3.38;;;;;;;29.15;32.39;96422.00;5055569;28;21105;-55
2021/09/01 09:24:40;;;;;;;4.13;3.35;;;;;;;28.94;32.21;96422.63;5055436;28;20441;-59
2021/09/01 09:27:06;;;;;;;7.88;3.40;;;;;;;28.75;33.22;96435.50;5055577;28;20049;-55
2021/09/01 09:29:34;;;;;;;4.57;2.90;;;;;;;28.75;34.81;96422.88;5055430;28;20017;-57
2021/09/01 09:32:04;;;;;;;4.90;2.97;;;;;;;28.80;33.35;96419.66;5055384;28;20422;-59
2021/09/01 09:34:39;;;;;;;6.57;3.85;;;;;;;28.79;33.23;96418.00;5054293;28;20032;-54
2021/09/01 09:37:09;;;;;;;13.65;3.70;;;;;;;28.30;33.26;96414.53;5055278;28;20029;-55
2021/09/01 09:39:50;;;;;;;5.72;3.03;;;;;;;27.70;34.70;96408.59;5055281;28;20022;-60
2021/09/01 09:42:33;;;;;;;7.28;3.97;;;;;;;27.29;36.96;96406.75;5055096;28;20049;-56
2021/09/01 09:45:21;;;;;;;4.68;3.90;;;;;;;27.17;37.21;96408.91;5055099;28;20040;-59
2021/09/01 09:47:49;;;;;;;5.38;4.00;;;;;;;26.91;36.44;96412.56;5055124;28;20036;-56
2021/09/01 09:50:15;;;;;;;7.03;4.07;;;;;;;26.65;40.23;96409.00;5055153;28;20063;-59
2021/09/01 09:52:41;;;;;;;13.70;4.53;;;;;;;26.46;44.48;96418.97;5054981;28;20129;-59
2021/09/01 09:55:15;;;;;;;18.40;4.72;;;;;;;26.25;50.10;96433.59;5054957;28;20107;-54
2021/09/01 09:58:01;;;;;;;13.68;5.18;;;;;;;25.67;50.03;96451.19;5054883;28;20029;-61
2021/09/01 10:00:27;;;;;;;27.38;7.60;;;;;;;24.79;51.58;96448.97;5054828;28;20036;-59
2021/09/01 10:02:53;;;;;;;21.85;6.95;;;;;;;24.15;52.63;96438.19;5054750;28;20056;-58
2021/09/01 10:05:23;;;;;;;22.02;6.50;;;;;;;23.63;53.67;96423.41;5054790;28;20075;-59
2021/09/01 10:07:49;;;;;;;15.15;6.47;;;;;;;23.12;56.56;96413.75;5054696;28;20495;-57
2021/09/01 10:10:16;;;;;;;14.23;6.55;;;;;;;22.72;61.46;96419.03;5054653;28;20024;-57
2021/09/01 10:12:44;;;;;;;9.75;5.13;;;;;;;22.43;61.54;96416.28;5054662;28;20482;-56
2021/09/01 10:15:32;;;;;;;12.10;5.45;;;;;;;22.37;63.58;96415.00;5054687;28;20017;-58
2021/09/01 10:18:08;;;;;;;9.85;5.00;;;;;;;22.44;59.64;96416.13;5054543;28;20112;-57
2021/09/01 10:20:42;;;;;;;7.60;5.00;;;;;;;22.48;60.88;96414.03;5054456;28;20061;-57
2021/09/01 10:23:09;;;;;;;11.48;6.38;;;;;;;22.74;66.41;96418.03;5054380;28;20037;-59
2021/09/01 10:25:40;;;;;;;11.93;6.05;;;;;;;23.03;69.31;96398.56;5054472;28;20104;-56
2021/09/01 10:28:23;;;;;;;12.15;6.30;;;;;;;23.56;70.69;96393.75;5054568;28;20021;-59
2021/09/01 10:31:11;;;;;;;10.48;5.20;;;;;;;24.04;65.22;96393.75;5054326;28;20177;-59
2021/09/01 10:33:37;;;;;;;7.05;4.18;;;;;;;24.38;60.18;96395.06;5054203;28;20041;-58
2021/09/01 10:36:25;;;;;;;9.30;3.97;;;;;;;24.55;60.78;96372.00;5054073;28;20029;-57
2021/09/01 10:38:51;;;;;;;12.05;4.45;;;;;;;24.78;63.40;96376.94;5054040;28;20033;-60
2021/09/01 10:41:27;;;;;;;7.03;3.28;;;;;;;25.02;57.13;96376.34;5053826;28;20063;-58
2021/09/01 10:44:11;;;;;;;3.30;2.95;;;;;;;25.07;53.21;96376.72;5053935;28;20429;-57
2021/09/01 10:46:48;;;;;;;4.65;2.97;;;;;;;24.93;56.96;96375.44;5053949;28;20025;-59
2021/09/01 10:49:14;;;;;;;4.57;3.63;;;;;;;25.03;61.25;96378.03;5053973;28;20028;-55
2021/09/01 10:51:48;;;;;;;4.20;3.58;;;;;;;25.08;61.33;96385.59;5053890;28;20029;-59
2021/09/01 10:54:33;;;;;;;6.72;3.65;;;;;;;25.12;62.79;96381.63;5053941;28;20024;-60
2021/09/01 10:57:03;;;;;;;3.42;3.13;;;;;;;25.14;61.12;96373.44;5054047;28;20040;-57
2021/09/01 10:59:38;;;;;;;5.32;3.08;;;;;;;25.11;60.48;96372.72;5053871;28;20025;-58
2021/09/01 11:02:14;;;;;;;4.93;3.40;;;;;;;24.98;59.92;96375.81;5053918;28;20040;-59
2021/09/01 11:04:49;;;;;;;6.00;3.67;;;;;;;24.98;60.89;96375.81;5053603;28;20032;-57
2021/09/01 11:07:32;;;;;;;3.70;3.40;;;;;;;25.02;58.96;96370.16;5053614;28;20383;-57
2021/09/01 11:10:03;;;;;;;4.28;3.40;;;;;;;24.91;59.95;96369.41;5053561;28;20058;-59
2021/09/01 11:12:31;;;;;;;5.10;3.58;;;;;;;24.94;58.05;96362.91;5053673;28;20090;-58
2021/09/01 11:14:58;;;;;;;5.30;3.10;;;;;;;25.21;52.42;96366.47;5053442;28;20033;-57
2021/09/01 11:17:28;;;;;;;6.00;3.28;;;;;;;25.29;49.65;96360.34;5053521;28;20032;-57
2021/09/01 11:20:02;;;;;;;4.18;3.15;;;;;;;25.40;49.92;96356.59;5053350;28;20017;-59
2021/09/01 11:22:30;;;;;;;3.88;2.95;;;;;;;25.63;48.95;96361.44;5053377;28;20021;-57
2021/09/01 11:25:06;;;;;;;4.15;2.90;;;;;;;25.68;47.34;96354.63;5053237;28;20029;-58
2021/09/01 11:27:34;;;;;;;3.53;3.08;;;;;;;25.49;46.39;96351.13;5053318;28;20379;-58
2021/09/01 11:30:03;;;;;;;5.05;2.92;;;;;;;25.38;44.27;96348.72;5053269;28;20127;-57
2021/09/01 11:32:29;;;;;;;4.10;3.67;;;;;;;25.50;47.12;96354.66;5053100;28;20025;-57
2021/09/01 11:34:54;;;;;;;4.03;2.92;;;;;;;25.70;46.15;96354.44;5053111;28;20056;-59